createdAt,value
2019-01-20T00:02:17.518Z,-3.90
2019-01-20T00:04:48.885Z,-3.90
2019-01-20T00:07:20.260Z,-3.90
2019-01-20T00:09:52.460Z,-3.90
2019-01-20T00:12:24.020Z,-4.00
2019-01-20T00:14:55.517Z,-3.90
2019-01-20T00:17:26.898Z,-3.90
2019-01-20T00:19:58.337Z,-3.90
2019-01-20T00:22:29.703Z,-3.90
2019-01-20T00:25:01.281Z,-3.90
2019-01-20T00:27:32.869Z,-4.00
2019-01-20T00:30:07.712Z,-4.00
2019-01-20T00:32:39.331Z,-4.00
2019-01-20T00:35:11.045Z,-4.00
2019-01-20T00:37:42.540Z,-4.00
2019-01-20T00:40:16.678Z,-4.00
2019-01-20T00:46:35.842Z,-4.00
2019-01-20T00:49:07.245Z,-4.00
2019-01-20T00:51:38.898Z,-4.00
2019-01-20T00:54:10.700Z,-4.00
2019-01-20T00:56:42.130Z,-4.00
2019-01-20T00:59:13.454Z,-4.00
2019-01-20T01:01:45.132Z,-4.00
2019-01-20T01:04:16.588Z,-3.90
2019-01-20T01:06:48.295Z,-4.00
2019-01-20T01:09:20.830Z,-4.20
2019-01-20T01:11:52.457Z,-4.20
2019-01-20T01:14:23.921Z,-4.20
2019-01-20T01:16:55.529Z,-4.20
2019-01-20T01:19:26.963Z,-4.30
2019-01-20T01:21:58.392Z,-4.30
2019-01-20T01:24:29.859Z,-4.30
2019-01-20T01:27:01.406Z,-4.30
2019-01-20T01:29:32.783Z,-4.40
2019-01-20T01:32:04.378Z,-4.40
2019-01-20T01:34:35.775Z,-4.30
2019-01-20T01:37:07.344Z,-4.30
2019-01-20T01:39:38.853Z,-4.30
2019-01-20T01:42:10.484Z,-4.30
2019-01-20T01:44:42.107Z,-4.30
2019-01-20T01:47:13.541Z,-4.20
2019-01-20T01:49:44.986Z,-4.10
2019-01-20T01:52:16.420Z,-4.00
2019-01-20T01:54:47.936Z,-3.90
2019-01-20T01:57:19.355Z,-3.90
2019-01-20T01:59:50.708Z,-3.90
2019-01-20T02:02:22.222Z,-3.80
2019-01-20T02:04:53.659Z,-3.70
2019-01-20T02:07:25.207Z,-3.70
2019-01-20T02:09:56.667Z,-3.80
2019-01-20T02:12:28.168Z,-3.80
2019-01-20T02:14:59.665Z,-3.70
2019-01-20T02:17:31.221Z,-3.80
2019-01-20T02:20:10.476Z,-3.70
2019-01-20T02:22:42.143Z,-3.80
2019-01-20T02:25:14.638Z,-3.80
2019-01-20T02:27:46.231Z,-3.70
2019-01-20T02:30:27.763Z,-3.80
2019-01-20T02:32:59.265Z,-3.70
2019-01-20T02:35:30.777Z,-3.70
2019-01-20T02:38:02.287Z,-3.60
2019-01-20T02:40:33.725Z,-3.60
2019-01-20T02:43:05.428Z,-3.60
2019-01-20T02:45:36.869Z,-3.60
2019-01-20T02:48:08.406Z,-3.40
2019-01-20T02:50:39.893Z,-3.40
2019-01-20T02:53:12.439Z,-3.30
2019-01-20T02:55:43.887Z,-3.40
2019-01-20T02:58:15.257Z,-3.40
2019-01-20T03:00:46.729Z,-3.40
2019-01-20T03:03:18.350Z,-3.40
2019-01-20T03:05:49.900Z,-3.50
2019-01-20T03:08:21.398Z,-3.50
2019-01-20T03:10:52.920Z,-3.50
2019-01-20T03:13:24.373Z,-3.50
2019-01-20T03:15:55.880Z,-3.60
2019-01-20T03:18:27.549Z,-3.50
2019-01-20T03:20:59.751Z,-3.50
2019-01-20T03:23:31.250Z,-3.60
2019-01-20T03:26:02.639Z,-3.60
2019-01-20T03:28:34.090Z,-3.60
2019-01-20T03:31:05.671Z,-3.50
2019-01-20T03:33:37.279Z,-3.50
2019-01-20T03:36:09.023Z,-3.50
2019-01-20T03:38:40.622Z,-3.50
2019-01-20T03:41:12.200Z,-3.50
2019-01-20T03:43:44.933Z,-3.50
2019-01-20T03:46:16.490Z,-3.50
2019-01-20T03:48:47.860Z,-3.50
2019-01-20T03:51:19.366Z,-3.40
2019-01-20T03:53:50.816Z,-3.40
2019-01-20T03:56:22.221Z,-3.50
2019-01-20T03:58:53.630Z,-3.50
2019-01-20T04:01:25.325Z,-3.50
2019-01-20T04:03:56.929Z,-3.50
2019-01-20T04:06:28.453Z,-3.50
2019-01-20T04:08:59.994Z,-3.50
2019-01-20T04:11:31.549Z,-3.50
2019-01-20T04:14:03.151Z,-3.50
2019-01-20T04:16:34.647Z,-3.50
2019-01-20T04:19:06.294Z,-3.50
2019-01-20T04:21:37.781Z,-3.50
2019-01-20T04:24:09.357Z,-3.50
2019-01-20T04:26:40.787Z,-3.40
2019-01-20T04:29:12.215Z,-3.40
2019-01-20T04:31:43.619Z,-3.40
2019-01-20T04:34:14.976Z,-3.40
2019-01-20T04:36:46.374Z,-3.50
2019-01-20T04:39:17.747Z,-3.40
2019-01-20T04:41:49.473Z,-3.50
2019-01-20T04:44:20.861Z,-3.40
2019-01-20T04:46:53.538Z,-3.40
2019-01-20T04:49:24.953Z,-3.30
2019-01-20T04:51:56.701Z,-3.10
2019-01-20T04:54:28.135Z,-3.10
2019-01-20T04:56:59.662Z,-3.00
2019-01-20T04:59:31.445Z,-3.20
2019-01-20T05:02:03.253Z,-3.20
2019-01-20T05:04:34.820Z,-3.30
2019-01-20T05:07:07.596Z,-3.40
2019-01-20T05:09:39.390Z,-3.40
2019-01-20T05:12:12.905Z,-3.40
2019-01-20T05:14:44.671Z,-3.40
2019-01-20T05:17:16.242Z,-3.40
2019-01-20T05:19:47.809Z,-3.50
2019-01-20T05:22:19.391Z,-3.50
2019-01-20T05:24:50.876Z,-3.60
2019-01-20T05:27:38.820Z,-3.60
2019-01-20T05:30:17.999Z,-3.70
2019-01-20T05:32:49.580Z,-3.70
2019-01-20T05:35:21.265Z,-3.80
2019-01-20T05:37:52.830Z,-3.80
2019-01-20T05:40:33.148Z,-3.60
2019-01-20T05:43:04.807Z,-3.60
2019-01-20T05:45:44.873Z,-3.70
2019-01-20T05:48:16.315Z,-3.70
2019-01-20T05:50:47.710Z,-3.80
2019-01-20T05:53:19.256Z,-3.80
2019-01-20T05:56:00.034Z,-3.90
2019-01-20T05:58:31.481Z,-3.90
2019-01-20T06:01:03.027Z,-3.90
2019-01-20T06:03:34.367Z,-3.90
2019-01-20T06:06:06.177Z,-4.00
2019-01-20T06:08:37.619Z,-4.10
2019-01-20T06:11:09.020Z,-4.10
2019-01-20T06:13:40.525Z,-4.10
2019-01-20T06:16:12.038Z,-4.20
2019-01-20T06:18:43.473Z,-4.30
2019-01-20T06:21:15.145Z,-4.30
2019-01-20T06:23:46.667Z,-4.20
2019-01-20T06:26:18.077Z,-4.30
2019-01-20T06:28:49.613Z,-4.30
2019-01-20T06:31:20.978Z,-4.30
2019-01-20T06:33:52.726Z,-4.30
2019-01-20T06:36:24.366Z,-4.20
2019-01-20T06:38:55.949Z,-4.30
2019-01-20T06:41:27.521Z,-4.40
2019-01-20T06:43:58.923Z,-4.40
2019-01-20T06:46:30.390Z,-4.50
2019-01-20T06:49:01.938Z,-4.50
2019-01-20T06:51:33.486Z,-4.50
2019-01-20T06:54:05.185Z,-4.50
2019-01-20T06:56:36.940Z,-4.40
2019-01-20T06:59:08.396Z,-4.40
2019-01-20T07:01:39.830Z,-4.40
2019-01-20T07:04:12.230Z,-4.40
2019-01-20T07:06:43.762Z,-4.30
2019-01-20T07:09:15.456Z,-4.20
2019-01-20T07:11:47.059Z,-4.20
2019-01-20T07:14:18.465Z,-4.20
2019-01-20T07:16:50.126Z,-4.30
2019-01-20T07:19:21.590Z,-4.40
2019-01-20T07:21:55.087Z,-4.40
2019-01-20T07:24:26.901Z,-4.50
2019-01-20T07:26:58.402Z,-4.50
2019-01-20T07:29:29.842Z,-4.50
2019-01-20T07:32:01.209Z,-4.60
2019-01-20T07:34:32.568Z,-4.50
2019-01-20T07:37:04.347Z,-4.50
2019-01-20T07:39:39.032Z,-4.60
2019-01-20T07:42:10.741Z,-4.60
2019-01-20T07:44:42.316Z,-4.60
2019-01-20T07:47:14.375Z,-4.70
2019-01-20T07:49:45.939Z,-4.70
2019-01-20T07:52:17.393Z,-4.60
2019-01-20T07:55:07.618Z,-4.70
2019-01-20T07:57:39.248Z,-4.60
2019-01-20T08:00:20.719Z,-4.70
2019-01-20T08:02:52.371Z,-4.70
2019-01-20T08:05:23.814Z,-4.60
2019-01-20T08:07:55.514Z,-4.60
2019-01-20T08:10:28.721Z,-4.60
2019-01-20T08:13:00.274Z,-4.60
2019-01-20T08:15:31.726Z,-4.50
2019-01-20T08:18:03.235Z,-4.50
2019-01-20T08:20:34.625Z,-4.50
2019-01-20T08:23:06.365Z,-4.50
2019-01-20T08:25:37.803Z,-4.50
2019-01-20T08:28:09.236Z,-4.50
2019-01-20T08:30:40.764Z,-4.50
2019-01-20T08:33:13.177Z,-4.40
2019-01-20T08:35:44.927Z,-4.40
2019-01-20T08:38:16.588Z,-4.40
2019-01-20T08:40:47.961Z,-4.40
2019-01-20T08:43:19.390Z,-4.40
2019-01-20T08:46:01.368Z,-4.30
2019-01-20T08:48:32.879Z,-4.30
2019-01-20T08:51:04.354Z,-4.20
2019-01-20T08:53:36.124Z,-4.20
2019-01-20T08:56:10.437Z,-4.00
2019-01-20T08:58:43.038Z,-4.00
2019-01-20T09:01:14.703Z,-3.90
2019-01-20T09:03:50.200Z,-3.90
2019-01-20T09:06:31.311Z,-3.80
2019-01-20T09:09:18.738Z,-3.80
2019-01-20T09:11:42.117Z,-3.80
2019-01-20T09:14:15.244Z,-3.70
2019-01-20T09:16:55.034Z,-3.60
2019-01-20T09:19:26.649Z,-3.60
2019-01-20T09:21:58.205Z,-3.50
2019-01-20T09:24:29.759Z,-3.50
2019-01-20T09:27:05.446Z,-3.40
2019-01-20T09:29:36.976Z,-3.40
2019-01-20T09:32:13.254Z,-3.30
2019-01-20T09:34:46.283Z,-3.20
2019-01-20T09:37:22.114Z,-3.20
2019-01-20T09:40:02.332Z,-3.20
2019-01-20T09:42:33.822Z,-3.10
2019-01-20T09:45:13.796Z,-3.10
2019-01-20T09:47:48.214Z,-3.10
2019-01-20T09:50:40.353Z,-3.00
2019-01-20T09:53:11.935Z,-3.00
2019-01-20T09:55:44.983Z,-2.90
2019-01-20T09:58:20.985Z,-2.80
2019-01-20T10:00:58.646Z,-2.80
2019-01-20T10:03:30.092Z,-2.80
2019-01-20T10:06:04.976Z,-2.80
2019-01-20T10:08:42.528Z,-2.80
2019-01-20T10:11:14.351Z,-2.70
2019-01-20T10:13:46.042Z,-2.70
2019-01-20T10:16:17.726Z,-2.70
2019-01-20T10:18:49.250Z,-2.60
2019-01-20T10:21:21.266Z,-2.60
2019-01-20T10:23:54.839Z,-2.50
2019-01-20T10:26:32.571Z,-2.50
2019-01-20T10:35:30.048Z,-2.50
2019-01-20T10:38:03.522Z,-2.50
2019-01-20T10:40:36.147Z,-2.50
2019-01-20T10:43:08.391Z,-2.40
2019-01-20T10:48:53.186Z,-2.40
2019-01-20T10:51:27.140Z,-2.40
2019-01-20T10:54:04.839Z,-2.30
2019-01-20T10:56:56.998Z,-2.30
2019-01-20T10:59:30.755Z,-2.30
2019-01-20T11:02:09.745Z,-2.20
2019-01-20T11:04:45.579Z,-2.10
2019-01-20T11:07:22.051Z,-2.10
2019-01-20T11:10:01.652Z,-2.10
2019-01-20T11:12:32.950Z,-2.00
2019-01-20T11:15:11.298Z,-2.00
2019-01-20T11:17:42.900Z,-2.00
2019-01-20T11:20:21.626Z,-1.90
2019-01-20T11:22:54.630Z,-1.90
2019-01-20T11:25:30.607Z,-1.80
2019-01-20T11:28:02.345Z,-1.80
2019-01-20T11:30:33.939Z,-1.70
2019-01-20T11:33:06.114Z,-1.60
2019-01-20T11:35:42.104Z,-1.50
2019-01-20T11:38:13.792Z,-1.40
2019-01-20T11:40:49.415Z,-1.30
2019-01-20T11:43:24.138Z,-1.20
2019-01-20T11:45:57.487Z,-1.10
2019-01-20T11:48:29.104Z,-1.00
2019-01-20T11:51:04.147Z,-1.00
2019-01-20T11:53:36.152Z,-1.00
2019-01-20T11:56:10.957Z,-1.00
2019-01-20T11:58:42.324Z,-0.90
2019-01-20T12:04:35.880Z,-0.90
2019-01-20T12:07:07.601Z,-0.80
2019-01-20T12:09:39.241Z,-0.80
2019-01-20T12:12:11.478Z,-0.60
2019-01-20T12:14:54.898Z,-0.50
2019-01-20T12:17:27.687Z,-0.50
2019-01-20T12:19:59.311Z,-0.40
2019-01-20T12:22:32.004Z,-0.30
2019-01-20T12:25:04.578Z,-0.30
2019-01-20T12:27:36.355Z,-0.30
2019-01-20T12:30:24.114Z,-0.30
2019-01-20T12:32:55.880Z,-0.40
2019-01-20T12:35:27.591Z,-0.40
2019-01-20T12:38:00.544Z,-0.30
2019-01-20T12:40:40.671Z,-0.20
2019-01-20T12:43:12.513Z,-0.10
2019-01-20T12:45:44.129Z,0.00
2019-01-20T12:48:18.307Z,0.20
2019-01-20T12:50:50.081Z,0.30
2019-01-20T12:53:21.630Z,0.50
2019-01-20T12:55:53.268Z,0.50
2019-01-20T12:58:24.996Z,0.60
2019-01-20T13:01:03.547Z,0.80
2019-01-20T13:03:35.203Z,0.70
2019-01-20T13:06:06.892Z,0.80
2019-01-20T13:08:41.120Z,0.80
2019-01-20T13:11:14.279Z,0.80
2019-01-20T13:13:46.936Z,0.80
2019-01-20T13:16:18.669Z,0.90
2019-01-20T13:18:57.722Z,0.90
2019-01-20T13:21:29.338Z,0.90
2019-01-20T13:24:01.141Z,0.90
2019-01-20T13:26:35.166Z,0.90
2019-01-20T13:29:06.966Z,1.00
2019-01-20T13:31:41.525Z,1.00
2019-01-20T13:34:15.958Z,1.10
2019-01-20T13:36:47.568Z,1.20
2019-01-20T13:39:19.191Z,1.30
2019-01-20T13:41:50.927Z,1.30
2019-01-20T13:44:23.578Z,1.40
2019-01-20T13:46:55.154Z,1.50
2019-01-20T13:49:27.273Z,1.50
2019-01-20T13:51:58.783Z,1.40
2019-01-20T13:54:30.476Z,1.40
2019-01-20T13:57:02.089Z,1.30
2019-01-20T13:59:33.789Z,1.40
2019-01-20T14:02:17.998Z,1.40
2019-01-20T14:04:49.638Z,1.50
2019-01-20T14:14:14.702Z,1.20
2019-01-20T14:16:52.644Z,1.10
2019-01-20T14:19:30.036Z,1.00
2019-01-20T14:22:01.728Z,0.90
2019-01-20T14:24:33.546Z,0.90
2019-01-20T14:27:08.082Z,0.80
2019-01-20T14:29:39.840Z,0.80
2019-01-20T14:32:11.526Z,0.80
2019-01-20T14:34:42.950Z,0.80
2019-01-20T14:37:14.446Z,0.70
2019-01-20T14:39:46.747Z,0.70
2019-01-20T14:42:20.773Z,0.70
2019-01-20T14:44:52.340Z,0.70
2019-01-20T14:47:26.991Z,0.60
2019-01-20T14:49:58.517Z,0.60
2019-01-20T14:52:29.916Z,0.60
2019-01-20T14:55:02.120Z,0.60
2019-01-20T14:57:33.588Z,0.60
2019-01-20T15:00:17.084Z,0.60
2019-01-20T15:02:50.234Z,0.50
2019-01-20T15:05:35.760Z,0.50
2019-01-20T15:08:09.704Z,0.50
2019-01-20T15:10:41.238Z,0.50
2019-01-20T15:13:14.978Z,0.40
2019-01-20T15:15:46.533Z,0.50
2019-01-20T15:18:19.787Z,0.50
2019-01-20T15:20:51.446Z,0.50
2019-01-20T15:23:28.327Z,0.40
2019-01-20T15:25:59.937Z,0.40
2019-01-20T15:28:37.044Z,0.40
2019-01-20T15:31:10.440Z,0.40
2019-01-20T15:33:55.323Z,0.30
2019-01-20T15:36:26.836Z,0.30
2019-01-20T15:38:58.531Z,0.30
2019-01-20T15:41:30.692Z,0.20
2019-01-20T15:44:02.302Z,0.20
2019-01-20T15:46:33.933Z,0.10
2019-01-20T15:49:08.775Z,0.10
2019-01-20T15:51:40.500Z,0.10
2019-01-20T15:54:12.369Z,0.00
2019-01-20T15:56:44.114Z,0.10
2019-01-20T15:59:17.408Z,0.00
2019-01-20T16:01:49.108Z,0.00
2019-01-20T16:04:24.055Z,-0.10
2019-01-20T16:06:54.090Z,-0.10
2019-01-20T16:09:29.786Z,-0.10
2019-01-20T16:12:02.663Z,-0.20
2019-01-20T16:14:34.515Z,-0.20
2019-01-20T16:17:07.744Z,-0.20
2019-01-20T16:19:39.271Z,-0.20
2019-01-20T16:22:10.839Z,-0.30
2019-01-20T16:24:42.571Z,-0.30
2019-01-20T16:27:16.073Z,-0.40
2019-01-20T16:29:47.682Z,-0.40
2019-01-20T16:32:35.046Z,-0.50
2019-01-20T16:35:13.208Z,-0.50
2019-01-20T16:37:44.724Z,-0.50
2019-01-20T16:40:22.549Z,-0.60
2019-01-20T16:42:55.394Z,-0.70
2019-01-20T16:45:35.275Z,-0.70
2019-01-20T16:48:08.131Z,-0.70
2019-01-20T16:50:39.885Z,-0.80
2019-01-20T16:53:11.469Z,-0.80
2019-01-20T16:55:43.031Z,-0.90
2019-01-20T16:58:14.573Z,-0.90
2019-01-20T17:00:48.261Z,-1.00
2019-01-20T17:03:19.851Z,-1.00
2019-01-20T17:05:51.427Z,-1.10
2019-01-20T17:08:23.406Z,-1.10
2019-01-20T17:10:54.979Z,-1.10
2019-01-20T17:13:32.523Z,-1.10
2019-01-20T17:16:04.076Z,-1.10
2019-01-20T17:18:35.616Z,-1.20
2019-01-20T17:21:11.747Z,-1.20
2019-01-20T17:23:43.171Z,-1.20
2019-01-20T17:26:14.833Z,-1.20
2019-01-20T17:28:46.276Z,-1.20
2019-01-20T17:31:21.149Z,-1.20
2019-01-20T17:33:52.978Z,-1.30
2019-01-20T17:36:26.608Z,-1.30
2019-01-20T17:38:57.966Z,-1.30
2019-01-20T17:41:29.497Z,-1.30
2019-01-20T17:44:00.866Z,-1.30
2019-01-20T17:46:33.292Z,-1.30
2019-01-20T17:49:05.103Z,-1.30
2019-01-20T17:51:39.531Z,-1.30
2019-01-20T17:54:11.035Z,-1.30
2019-01-20T17:56:42.494Z,-1.30
2019-01-20T17:59:14.059Z,-1.40
2019-01-20T18:01:45.772Z,-1.40
2019-01-20T18:04:17.291Z,-1.40
2019-01-20T18:06:48.837Z,-1.40
2019-01-20T18:09:22.219Z,-1.40
2019-01-20T18:11:53.605Z,-1.50
2019-01-20T18:14:25.083Z,-1.50
2019-01-20T18:16:56.510Z,-1.50
2019-01-20T18:19:27.828Z,-1.50
2019-01-20T18:21:59.470Z,-1.50
2019-01-20T18:24:30.753Z,-1.60
2019-01-20T18:27:03.705Z,-1.60
2019-01-20T18:29:35.440Z,-1.60
2019-01-20T18:32:07.143Z,-1.60
2019-01-20T18:34:38.660Z,-1.60
2019-01-20T18:37:10.122Z,-1.70
2019-01-20T18:39:41.640Z,-1.70
2019-01-20T18:42:17.853Z,-1.70
2019-01-20T18:44:49.475Z,-1.70
2019-01-20T18:47:20.876Z,-1.80
2019-01-20T18:49:52.244Z,-1.80
2019-01-20T18:52:23.727Z,-1.80
2019-01-20T18:54:55.188Z,-1.80
2019-01-20T18:57:26.714Z,-1.90
2019-01-20T18:59:58.138Z,-1.90
2019-01-20T19:02:29.624Z,-1.90
2019-01-20T19:05:01.023Z,-1.90
2019-01-20T19:07:32.561Z,-1.90
2019-01-20T19:10:04.913Z,-1.90
2019-01-20T19:12:36.460Z,-1.90
2019-01-20T19:15:12.741Z,-1.90
2019-01-20T19:17:44.341Z,-2.00
2019-01-20T19:20:25.389Z,-2.00
2019-01-20T19:22:59.520Z,-2.00
2019-01-20T19:25:31.059Z,-2.10
2019-01-20T19:28:03.033Z,-2.10
2019-01-20T19:30:36.324Z,-2.10
2019-01-20T19:33:09.110Z,-2.10
2019-01-20T19:35:42.362Z,-2.20
2019-01-20T19:38:14.062Z,-2.20
2019-01-20T19:40:46.534Z,-2.20
2019-01-20T19:43:18.224Z,-2.20
2019-01-20T19:45:50.790Z,-2.30
2019-01-20T19:48:22.488Z,-2.30
2019-01-20T19:50:54.039Z,-2.40
2019-01-20T19:53:25.578Z,-2.40
2019-01-20T19:55:57.054Z,-2.40
2019-01-20T19:58:28.682Z,-2.40
2019-01-20T20:01:00.412Z,-2.40
2019-01-20T20:03:33.099Z,-2.40
2019-01-20T20:06:04.791Z,-2.50
2019-01-20T20:08:36.499Z,-2.50
2019-01-20T20:11:08.189Z,-2.50
2019-01-20T20:13:42.164Z,-2.50
2019-01-20T20:16:13.660Z,-2.50
2019-01-20T20:18:48.710Z,-2.50
2019-01-20T20:21:20.364Z,-2.60
2019-01-20T20:23:52.836Z,-2.60
2019-01-20T20:26:24.532Z,-2.60
2019-01-20T20:28:56.223Z,-2.70
2019-01-20T20:31:27.696Z,-2.70
2019-01-20T20:34:00.386Z,-2.70
2019-01-20T20:36:40.494Z,-2.60
2019-01-20T20:39:15.512Z,-2.60
2019-01-20T20:41:48.145Z,-2.60
2019-01-20T20:44:21.589Z,-2.70
2019-01-20T20:46:54.245Z,-2.70
2019-01-20T20:49:26.021Z,-2.70
2019-01-20T20:51:57.845Z,-2.70
2019-01-20T20:54:35.335Z,-2.70
2019-01-20T20:57:03.837Z,-2.70
2019-01-20T20:59:40.122Z,-2.70
2019-01-20T21:02:16.656Z,-2.70
2019-01-20T21:04:48.568Z,-2.80
2019-01-20T21:07:20.365Z,-2.80
2019-01-20T21:09:56.495Z,-2.80
2019-01-20T21:12:25.867Z,-2.80
2019-01-20T21:14:57.715Z,-2.80
2019-01-20T21:17:30.314Z,-2.90
2019-01-20T21:20:03.521Z,-2.90
2019-01-20T21:22:35.421Z,-2.90
2019-01-20T21:25:11.277Z,-2.90
2019-01-20T21:27:59.586Z,-3.00
2019-01-20T21:30:31.423Z,-3.00
2019-01-20T21:33:03.003Z,-3.00
2019-01-20T21:35:34.695Z,-3.10
2019-01-20T21:38:06.998Z,-3.10
2019-01-20T21:40:38.797Z,-3.10
2019-01-20T21:43:10.646Z,-3.10
2019-01-20T21:45:42.487Z,-3.10
2019-01-20T21:48:14.940Z,-3.10
2019-01-20T21:50:46.581Z,-3.10
2019-01-20T21:53:18.984Z,-3.20
2019-01-20T21:55:50.785Z,-3.20
2019-01-20T21:58:22.237Z,-3.20
2019-01-20T22:00:53.839Z,-3.20
2019-01-20T22:03:25.477Z,-3.30
2019-01-20T22:05:57.088Z,-3.30
2019-01-20T22:08:29.588Z,-3.30
2019-01-20T22:11:01.122Z,-3.40
2019-01-20T22:13:32.600Z,-3.40
2019-01-20T22:16:04.407Z,-3.40
2019-01-20T22:18:37.404Z,-3.40
2019-01-20T22:21:08.936Z,-3.50
2019-01-20T22:23:40.564Z,-3.50
2019-01-20T22:26:12.225Z,-3.50
2019-01-20T22:28:51.983Z,-3.50
2019-01-20T22:31:29.581Z,-3.50
2019-01-20T22:34:01.246Z,-3.50
2019-01-20T22:36:32.703Z,-3.60
2019-01-20T22:39:06.142Z,-3.50
2019-01-20T22:41:40.842Z,-3.50
2019-01-20T22:44:12.333Z,-3.60
2019-01-20T22:46:45.796Z,-3.60
2019-01-20T22:49:18.080Z,-3.60
2019-01-20T22:51:49.549Z,-3.60
2019-01-20T22:54:21.047Z,-3.60
2019-01-20T22:56:52.734Z,-3.60
2019-01-20T22:59:24.478Z,-3.60
2019-01-20T23:01:57.129Z,-3.60
2019-01-20T23:04:28.615Z,-3.60
2019-01-20T23:07:00.087Z,-3.60
2019-01-20T23:09:32.092Z,-3.60
2019-01-20T23:12:03.720Z,-3.60
2019-01-20T23:14:38.561Z,-3.70
2019-01-20T23:17:16.032Z,-3.60
2019-01-20T23:19:49.239Z,-3.70
2019-01-20T23:22:23.889Z,-3.70
2019-01-20T23:24:56.099Z,-3.70
2019-01-20T23:27:27.692Z,-3.70
2019-01-20T23:29:59.437Z,-3.70
2019-01-20T23:32:36.913Z,-3.70
2019-01-20T23:35:10.877Z,-3.70
2019-01-20T23:37:44.243Z,-3.70
2019-01-20T23:40:18.943Z,-3.70
2019-01-20T23:42:53.655Z,-3.70
2019-01-20T23:45:28.249Z,-3.70
2019-01-20T23:47:59.786Z,-3.80
2019-01-20T23:50:32.228Z,-3.80
2019-01-20T23:53:03.830Z,-3.80
2019-01-20T23:55:35.990Z,-3.80
2019-01-20T23:58:09.709Z,-3.80
